Aérodrome :
LOGIN :

S'inscrire | Disclaimer

   EN    FR    IT 

 










Légende :    VFR   VFR Marginal   IFR   IFR Intensif   IFR Très Intensif
Visi : 
Plafond : 
>= 8 km
>= 3000ft
5 à 8 km
1000 à 3000 ft
1500m à 5 km
500 à 1000 ft
800 à 1500m
200 à 500 ft
< 800m
< 200 ft
Symboles :   Orages  Brouillard  Fortes neiges  Fortes précipitations  Vent > 20 kt
SIGMETs :   Divers  Orages  Givrage  Turbulence  Onde Orograph.  Cendres Volcan.







- Altitude de l'aérodrome : 586 ft


LIMN - Cameri Air Force Base

DERNIER METAR :
  • 231116Z 12008KT 1400 RA BR BKN010 SCT025 13/11 Q1016 RMK OVC VIS MIN 1400 AMB

METARs EXPIRÉS :
  • 231055Z 07007KT 040V100 2500 -RA BR BKN010 SCT030 13/11 Q1016 RMK OVC VIS MIN 2500 YLO
  • 230955Z 09007KT 2500 -RA BR BKN010 SCT030 13/10 Q1016 RMK OVC VIS MIN 2500 YLO
  • 230855Z 08006KT 040V110 3000 BR FEW010 SCT040 12/10 Q1016 RMK OVC VIS MIN 3000 YLO

TAF TAF LIMN
Valide du 23 à 12h jusqu'au 23 à 21h UTC


231100Z 2312/2321 10010KT 2500 RA BR BKN010 SCT030
PROB40
TEMPO 2313/2319 3000 TSRA FEW020CB
Pas de NOTAMs connus pour ce terrain.



MET'MAP, la Météo Aéronautique d'un coup d'oeil ! - Copyright ORBIFLY Décembre 2007 - Disclaimer

ORBIFLY MET'MAP TEAM :

Programmation & Développement : Alexandra Zaïnal
Conception & Développement : Baudouin d'Aumeries
Co-Programmation & Développement : Marc-Olivier Méhu
Soutien technique & logistique : Manuel Goepfert

Contact : metmap@orbifly.com




SOURCES & CREDITS :

   NOAA